sensor_id;sensor_type;location;lat;lon;timestamp;temperature;humidity
20370;DHT22;10344;47.592;9.600;2023-03-04T00:00:56;1.10;99.90
20370;DHT22;10344;47.592;9.600;2023-03-04T00:03:22;1.00;99.90
20370;DHT22;10344;47.592;9.600;2023-03-04T00:05:47;1.00;99.90
20370;DHT22;10344;47.592;9.600;2023-03-04T00:08:13;1.10;99.90
20370;DHT22;10344;47.592;9.600;2023-03-04T00:10:43;1.10;99.90
20370;DHT22;10344;47.592;9.600;2023-03-04T00:13:11;1.00;99.90
20370;DHT22;10344;47.592;9.600;2023-03-04T00:15:36;1.10;99.90
20370;DHT22;10344;47.592;9.600;2023-03-04T00:18:02;1.00;99.90
20370;DHT22;10344;47.592;9.600;2023-03-04T00:20:30;1.10;99.90
20370;DHT22;10344;47.592;9.600;2023-03-04T00:22:56;1.00;99.90
20370;DHT22;10344;47.592;9.600;2023-03-04T00:25:21;1.00;99.90
20370;DHT22;10344;47.592;9.600;2023-03-04T00:27:47;1.00;99.90
20370;DHT22;10344;47.592;9.600;2023-03-04T00:30:13;1.10;99.90
20370;DHT22;10344;47.592;9.600;2023-03-04T00:32:38;1.00;99.90
20370;DHT22;10344;47.592;9.600;2023-03-04T00:35:05;1.00;99.90
20370;DHT22;10344;47.592;9.600;2023-03-04T00:37:31;1.00;99.90
20370;DHT22;10344;47.592;9.600;2023-03-04T00:39:57;1.00;99.90
20370;DHT22;10344;47.592;9.600;2023-03-04T00:42:23;0.90;99.90
20370;DHT22;10344;47.592;9.600;2023-03-04T00:44:48;0.90;99.90
20370;DHT22;10344;47.592;9.600;2023-03-04T00:47:15;0.80;99.90
20370;DHT22;10344;47.592;9.600;2023-03-04T00:49:41;0.80;99.90
20370;DHT22;10344;47.592;9.600;2023-03-04T00:52:06;0.90;99.90
20370;DHT22;10344;47.592;9.600;2023-03-04T00:54:32;0.90;99.90
20370;DHT22;10344;47.592;9.600;2023-03-04T00:56:58;0.90;99.90
20370;DHT22;10344;47.592;9.600;2023-03-04T00:59:23;0.90;99.90
20370;DHT22;10344;47.592;9.600;2023-03-04T01:01:49;0.90;99.90
20370;DHT22;10344;47.592;9.600;2023-03-04T01:04:17;0.90;99.90
20370;DHT22;10344;47.592;9.600;2023-03-04T01:06:43;0.80;99.90
20370;DHT22;10344;47.592;9.600;2023-03-04T01:09:11;0.70;99.90
20370;DHT22;10344;47.592;9.600;2023-03-04T01:11:36;0.70;99.90
20370;DHT22;10344;47.592;9.600;2023-03-04T01:14:02;0.70;99.90
20370;DHT22;10344;47.592;9.600;2023-03-04T01:16:31;0.70;99.90
20370;DHT22;10344;47.592;9.600;2023-03-04T01:18:59;0.80;99.90
20370;DHT22;10344;47.592;9.600;2023-03-04T01:21:25;0.70;99.90
20370;DHT22;10344;47.592;9.600;2023-03-04T01:23:50;0.60;99.90
20370;DHT22;10344;47.592;9.600;2023-03-04T01:26:16;0.60;99.90
20370;DHT22;10344;47.592;9.600;2023-03-04T01:28:42;0.70;99.90
20370;DHT22;10344;47.592;9.600;2023-03-04T01:31:09;0.70;99.90
20370;DHT22;10344;47.592;9.600;2023-03-04T01:33:34;0.60;99.90
20370;DHT22;10344;47.592;9.600;2023-03-04T01:36:03;0.60;99.90
20370;DHT22;10344;47.592;9.600;2023-03-04T01:38:32;0.60;99.90
20370;DHT22;10344;47.592;9.600;2023-03-04T01:40:57;0.50;99.90
20370;DHT22;10344;47.592;9.600;2023-03-04T01:43:27;0.60;99.90
20370;DHT22;10344;47.592;9.600;2023-03-04T01:45:55;0.50;99.90
20370;DHT22;10344;47.592;9.600;2023-03-04T01:48:32;0.50;99.90
20370;DHT22;10344;47.592;9.600;2023-03-04T01:51:05;0.50;99.90
20370;DHT22;10344;47.592;9.600;2023-03-04T01:53:37;0.50;99.90
20370;DHT22;10344;47.592;9.600;2023-03-04T01:56:15;0.60;99.90
20370;DHT22;10344;47.592;9.600;2023-03-04T01:58:43;0.50;99.90
20370;DHT22;10344;47.592;9.600;2023-03-04T02:01:16;0.50;99.90
20370;DHT22;10344;47.592;9.600;2023-03-04T02:03:41;0.50;99.90
20370;DHT22;10344;47.592;9.600;2023-03-04T02:06:08;0.50;99.90
20370;DHT22;10344;47.592;9.600;2023-03-04T02:08:55;0.50;99.90
20370;DHT22;10344;47.592;9.600;2023-03-04T02:11:28;0.50;99.90
20370;DHT22;10344;47.592;9.600;2023-03-04T02:13:53;0.50;99.90
20370;DHT22;10344;47.592;9.600;2023-03-04T02:16:20;0.50;99.90
20370;DHT22;10344;47.592;9.600;2023-03-04T02:18:55;0.40;99.90
20370;DHT22;10344;47.592;9.600;2023-03-04T02:21:29;0.40;99.90
20370;DHT22;10344;47.592;9.600;2023-03-04T02:24:28;0.50;99.90
20370;DHT22;10344;47.592;9.600;2023-03-04T02:27:02;0.30;99.90
20370;DHT22;10344;47.592;9.600;2023-03-04T02:29:41;0.30;99.90
20370;DHT22;10344;47.592;9.600;2023-03-04T02:32:30;0.30;99.90
20370;DHT22;10344;47.592;9.600;2023-03-04T02:35:29;0.40;99.90
20370;DHT22;10344;47.592;9.600;2023-03-04T02:38:04;0.40;99.90
20370;DHT22;10344;47.592;9.600;2023-03-04T02:40:52;0.40;99.90
20370;DHT22;10344;47.592;9.600;2023-03-04T02:43:53;0.40;99.90
20370;DHT22;10344;47.592;9.600;2023-03-04T02:46:51;0.40;99.90
20370;DHT22;10344;47.592;9.600;2023-03-04T02:49:57;0.40;99.90
20370;DHT22;10344;47.592;9.600;2023-03-04T02:53:20;0.20;99.90
20370;DHT22;10344;47.592;9.600;2023-03-04T03:07:04;0.10;99.90
20370;DHT22;10344;47.592;9.600;2023-03-04T03:09:37;0.10;99.90
20370;DHT22;10344;47.592;9.600;2023-03-04T03:12:30;0.10;99.90
20370;DHT22;10344;47.592;9.600;2023-03-04T03:15:01;0.10;99.90
20370;DHT22;10344;47.592;9.600;2023-03-04T03:17:39;0.10;99.90
20370;DHT22;10344;47.592;9.600;2023-03-04T03:23:06;0.10;99.90
20370;DHT22;10344;47.592;9.600;2023-03-04T03:25:58;0.10;99.90
20370;DHT22;10344;47.592;9.600;2023-03-04T03:28:37;0.20;99.90
20370;DHT22;10344;47.592;9.600;2023-03-04T03:31:09;0.20;99.90
20370;DHT22;10344;47.592;9.600;2023-03-04T03:33:37;0.20;99.90
20370;DHT22;10344;47.592;9.600;2023-03-04T03:36:04;0.20;99.90
20370;DHT22;10344;47.592;9.600;2023-03-04T03:38:56;0.00;99.90
20370;DHT22;10344;47.592;9.600;2023-03-04T03:41:34;0.00;99.90
20370;DHT22;10344;47.592;9.600;2023-03-04T03:44:04;0.00;99.90
20370;DHT22;10344;47.592;9.600;2023-03-04T03:46:43;0.10;99.90
20370;DHT22;10344;47.592;9.600;2023-03-04T03:49:13;0.10;99.90
20370;DHT22;10344;47.592;9.600;2023-03-04T03:51:45;0.10;99.90
20370;DHT22;10344;47.592;9.600;2023-03-04T03:54:12;0.10;99.90
20370;DHT22;10344;47.592;9.600;2023-03-04T03:56:43;0.10;99.90
20370;DHT22;10344;47.592;9.600;2023-03-04T03:59:12;0.10;99.90
20370;DHT22;10344;47.592;9.600;2023-03-04T04:01:46;0.10;99.90
20370;DHT22;10344;47.592;9.600;2023-03-04T04:04:13;0.00;99.90
20370;DHT22;10344;47.592;9.600;2023-03-04T04:06:54;0.10;99.90
20370;DHT22;10344;47.592;9.600;2023-03-04T04:09:24;0.10;99.90
20370;DHT22;10344;47.592;9.600;2023-03-04T04:12:22;0.00;99.90
20370;DHT22;10344;47.592;9.600;2023-03-04T04:14:55;-0.10;99.90
20370;DHT22;10344;47.592;9.600;2023-03-04T04:17:22;-0.10;99.90
20370;DHT22;10344;47.592;9.600;2023-03-04T04:19:50;0.10;99.90
20370;DHT22;10344;47.592;9.600;2023-03-04T04:22:40;0.00;99.90
20370;DHT22;10344;47.592;9.600;2023-03-04T04:25:13;-0.10;99.90
20370;DHT22;10344;47.592;9.600;2023-03-04T04:27:48;-0.20;99.90
20370;DHT22;10344;47.592;9.600;2023-03-04T04:30:39;-0.10;99.90
20370;DHT22;10344;47.592;9.600;2023-03-04T04:33:18;0.00;99.90
20370;DHT22;10344;47.592;9.600;2023-03-04T04:36:22;0.00;99.90
20370;DHT22;10344;47.592;9.600;2023-03-04T04:39:12;0.00;99.90
20370;DHT22;10344;47.592;9.600;2023-03-04T04:42:05;-0.10;99.90
20370;DHT22;10344;47.592;9.600;2023-03-04T04:44:49;-0.20;99.90
20370;DHT22;10344;47.592;9.600;2023-03-04T04:47:25;-0.10;99.90
20370;DHT22;10344;47.592;9.600;2023-03-04T04:50:00;-0.20;99.90
20370;DHT22;10344;47.592;9.600;2023-03-04T04:52:40;-0.10;99.90
20370;DHT22;10344;47.592;9.600;2023-03-04T04:55:22;-0.30;99.90
20370;DHT22;10344;47.592;9.600;2023-03-04T04:57:50;-0.10;99.90
20370;DHT22;10344;47.592;9.600;2023-03-04T05:00:19;0.00;99.90
20370;DHT22;10344;47.592;9.600;2023-03-04T05:03:06;-0.10;99.90
20370;DHT22;10344;47.592;9.600;2023-03-04T05:05:33;-0.10;99.90
20370;DHT22;10344;47.592;9.600;2023-03-04T05:08:09;-0.10;99.90
20370;DHT22;10344;47.592;9.600;2023-03-04T05:10:43;-0.20;99.90
20370;DHT22;10344;47.592;9.600;2023-03-04T05:13:19;-0.10;99.90
20370;DHT22;10344;47.592;9.600;2023-03-04T05:15:58;-0.30;99.90
20370;DHT22;10344;47.592;9.600;2023-03-04T05:18:39;-0.30;99.90
20370;DHT22;10344;47.592;9.600;2023-03-04T05:21:32;-0.10;99.90
20370;DHT22;10344;47.592;9.600;2023-03-04T05:24:11;-0.10;99.90
20370;DHT22;10344;47.592;9.600;2023-03-04T05:27:34;-0.10;99.90
20370;DHT22;10344;47.592;9.600;2023-03-04T05:30:33;0.00;99.90
20370;DHT22;10344;47.592;9.600;2023-03-04T05:33:07;0.00;99.90
20370;DHT22;10344;47.592;9.600;2023-03-04T05:35:45;0.00;99.90
20370;DHT22;10344;47.592;9.600;2023-03-04T05:38:18;0.00;99.90
20370;DHT22;10344;47.592;9.600;2023-03-04T05:41:15;0.00;99.90
20370;DHT22;10344;47.592;9.600;2023-03-04T05:44:57;0.00;99.90
20370;DHT22;10344;47.592;9.600;2023-03-04T05:47:48;0.00;99.90
20370;DHT22;10344;47.592;9.600;2023-03-04T05:51:03;0.10;99.90
20370;DHT22;10344;47.592;9.600;2023-03-04T05:53:38;0.30;99.90
20370;DHT22;10344;47.592;9.600;2023-03-04T05:56:12;0.30;99.90
20370;DHT22;10344;47.592;9.600;2023-03-04T05:58:43;0.40;99.90
20370;DHT22;10344;47.592;9.600;2023-03-04T06:01:29;0.40;99.90
20370;DHT22;10344;47.592;9.600;2023-03-04T06:03:59;0.50;99.90
20370;DHT22;10344;47.592;9.600;2023-03-04T06:06:49;0.30;99.90
20370;DHT22;10344;47.592;9.600;2023-03-04T06:09:21;0.50;99.90
20370;DHT22;10344;47.592;9.600;2023-03-04T06:12:43;0.50;99.90
20370;DHT22;10344;47.592;9.600;2023-03-04T06:15:33;0.50;99.90
20370;DHT22;10344;47.592;9.600;2023-03-04T06:18:14;0.60;99.90
20370;DHT22;10344;47.592;9.600;2023-03-04T06:20:58;0.80;99.90
20370;DHT22;10344;47.592;9.600;2023-03-04T06:23:30;0.80;99.90
20370;DHT22;10344;47.592;9.600;2023-03-04T06:26:29;1.00;99.90
20370;DHT22;10344;47.592;9.600;2023-03-04T06:29:46;1.00;99.90
20370;DHT22;10344;47.592;9.600;2023-03-04T06:32:28;1.10;99.90
20370;DHT22;10344;47.592;9.600;2023-03-04T06:35:24;1.20;99.90
20370;DHT22;10344;47.592;9.600;2023-03-04T06:38:14;1.20;99.90
20370;DHT22;10344;47.592;9.600;2023-03-04T06:40:52;1.20;99.90
20370;DHT22;10344;47.592;9.600;2023-03-04T06:43:20;1.50;99.90
20370;DHT22;10344;47.592;9.600;2023-03-04T06:45:47;1.40;99.90
20370;DHT22;10344;47.592;9.600;2023-03-04T06:48:14;1.50;99.90
20370;DHT22;10344;47.592;9.600;2023-03-04T06:50:43;1.60;99.90
20370;DHT22;10344;47.592;9.600;2023-03-04T06:53:31;1.60;99.90
20370;DHT22;10344;47.592;9.600;2023-03-04T06:56:19;1.60;99.90
20370;DHT22;10344;47.592;9.600;2023-03-04T06:59:18;1.60;99.90
20370;DHT22;10344;47.592;9.600;2023-03-04T07:01:45;1.60;99.90
20370;DHT22;10344;47.592;9.600;2023-03-04T07:04:15;1.70;99.90
20370;DHT22;10344;47.592;9.600;2023-03-04T07:06:45;1.80;99.90
20370;DHT22;10344;47.592;9.600;2023-03-04T07:09:10;1.90;99.90
20370;DHT22;10344;47.592;9.600;2023-03-04T07:11:36;1.90;99.90
20370;DHT22;10344;47.592;9.600;2023-03-04T07:14:02;1.90;99.90
20370;DHT22;10344;47.592;9.600;2023-03-04T07:16:52;2.00;99.90
20370;DHT22;10344;47.592;9.600;2023-03-04T07:20:34;2.00;99.90
20370;DHT22;10344;47.592;9.600;2023-03-04T07:24:30;2.10;99.90
20370;DHT22;10344;47.592;9.600;2023-03-04T07:28:00;2.20;99.90
20370;DHT22;10344;47.592;9.600;2023-03-04T07:41:24;2.40;99.90
20370;DHT22;10344;47.592;9.600;2023-03-04T07:44:47;2.60;99.90
20370;DHT22;10344;47.592;9.600;2023-03-04T07:51:51;2.70;99.90
20370;DHT22;10344;47.592;9.600;2023-03-04T08:07:36;2.90;99.90
20370;DHT22;10344;47.592;9.600;2023-03-04T08:14:24;3.00;99.90
20370;DHT22;10344;47.592;9.600;2023-03-04T08:38:02;3.50;99.90
20370;DHT22;10344;47.592;9.600;2023-03-04T08:40:34;3.70;99.90
20370;DHT22;10344;47.592;9.600;2023-03-04T08:46:22;3.80;99.90
20370;DHT22;10344;47.592;9.600;2023-03-04T08:58:52;4.20;99.90
20370;DHT22;10344;47.592;9.600;2023-03-04T09:01:22;4.40;99.90
20370;DHT22;10344;47.592;9.600;2023-03-04T09:04:10;4.50;99.90
20370;DHT22;10344;47.592;9.600;2023-03-04T09:06:36;4.60;99.90
20370;DHT22;10344;47.592;9.600;2023-03-04T09:09:03;4.80;99.90
20370;DHT22;10344;47.592;9.600;2023-03-04T09:11:32;4.60;99.90
20370;DHT22;10344;47.592;9.600;2023-03-04T09:13:58;4.60;99.90
20370;DHT22;10344;47.592;9.600;2023-03-04T09:16:24;4.70;99.90
20370;DHT22;10344;47.592;9.600;2023-03-04T09:18:49;4.80;99.90
20370;DHT22;10344;47.592;9.600;2023-03-04T09:21:27;4.80;99.90
20370;DHT22;10344;47.592;9.600;2023-03-04T09:26:50;4.90;99.90
20370;DHT22;10344;47.592;9.600;2023-03-04T09:29:16;4.90;99.90
20370;DHT22;10344;47.592;9.600;2023-03-04T09:32:00;5.00;99.90
20370;DHT22;10344;47.592;9.600;2023-03-04T09:37:58;5.10;99.90
20370;DHT22;10344;47.592;9.600;2023-03-04T09:40:41;5.00;99.90
20370;DHT22;10344;47.592;9.600;2023-03-04T09:43:24;5.30;99.90
20370;DHT22;10344;47.592;9.600;2023-03-04T09:46:03;5.40;99.90
20370;DHT22;10344;47.592;9.600;2023-03-04T09:48:54;5.40;99.90
20370;DHT22;10344;47.592;9.600;2023-03-04T10:04:35;5.60;99.90
20370;DHT22;10344;47.592;9.600;2023-03-04T10:07:11;5.80;99.90
20370;DHT22;10344;47.592;9.600;2023-03-04T10:09:53;5.90;99.90
20370;DHT22;10344;47.592;9.600;2023-03-04T10:12:23;6.10;99.90
20370;DHT22;10344;47.592;9.600;2023-03-04T10:18:30;6.60;99.90
20370;DHT22;10344;47.592;9.600;2023-03-04T10:23:33;7.10;99.90
20370;DHT22;10344;47.592;9.600;2023-03-04T10:26:22;7.40;99.90
20370;DHT22;10344;47.592;9.600;2023-03-04T10:28:57;8.30;99.90
20370;DHT22;10344;47.592;9.600;2023-03-04T10:31:47;8.90;99.90
20370;DHT22;10344;47.592;9.600;2023-03-04T10:34:15;9.00;99.90
20370;DHT22;10344;47.592;9.600;2023-03-04T10:39:27;9.20;99.90
20370;DHT22;10344;47.592;9.600;2023-03-04T10:42:03;10.00;99.90
20370;DHT22;10344;47.592;9.600;2023-03-04T10:44:32;10.60;99.90
20370;DHT22;10344;47.592;9.600;2023-03-04T10:46:59;10.80;99.90
20370;DHT22;10344;47.592;9.600;2023-03-04T10:49:28;10.70;99.90
20370;DHT22;10344;47.592;9.600;2023-03-04T10:52:25;10.70;99.90
20370;DHT22;10344;47.592;9.600;2023-03-04T10:54:59;10.70;99.90
20370;DHT22;10344;47.592;9.600;2023-03-04T10:57:42;10.90;99.90
20370;DHT22;10344;47.592;9.600;2023-03-04T11:00:35;10.90;99.90
20370;DHT22;10344;47.592;9.600;2023-03-04T11:03:31;10.30;99.90
20370;DHT22;10344;47.592;9.600;2023-03-04T11:06:21;9.90;99.90
20370;DHT22;10344;47.592;9.600;2023-03-04T11:08:58;9.90;99.90
20370;DHT22;10344;47.592;9.600;2023-03-04T11:14:53;9.00;99.90
20370;DHT22;10344;47.592;9.600;2023-03-04T11:19:47;9.40;99.90
20370;DHT22;10344;47.592;9.600;2023-03-04T11:22:23;9.70;99.90
20370;DHT22;10344;47.592;9.600;2023-03-04T11:25:02;9.50;99.90
20370;DHT22;10344;47.592;9.600;2023-03-04T11:27:43;9.40;99.90
20370;DHT22;10344;47.592;9.600;2023-03-04T11:33:11;10.30;99.90
20370;DHT22;10344;47.592;9.600;2023-03-04T11:38:53;10.80;99.90
20370;DHT22;10344;47.592;9.600;2023-03-04T11:43:59;11.00;99.90
20370;DHT22;10344;47.592;9.600;2023-03-04T11:49:30;11.20;99.90
20370;DHT22;10344;47.592;9.600;2023-03-04T11:56:05;10.60;99.90
20370;DHT22;10344;47.592;9.600;2023-03-04T12:07:45;9.10;99.90
20370;DHT22;10344;47.592;9.600;2023-03-04T12:11:02;8.90;99.90
20370;DHT22;10344;47.592;9.600;2023-03-04T12:16:33;9.30;99.90
20370;DHT22;10344;47.592;9.600;2023-03-04T12:19:28;9.40;99.90
20370;DHT22;10344;47.592;9.600;2023-03-04T12:25:38;9.30;99.90
20370;DHT22;10344;47.592;9.600;2023-03-04T12:34:31;9.40;99.90
20370;DHT22;10344;47.592;9.600;2023-03-04T12:39:55;9.30;99.90
20370;DHT22;10344;47.592;9.600;2023-03-04T12:54:46;9.10;99.90
20370;DHT22;10344;47.592;9.600;2023-03-04T12:57:23;9.00;99.90
20370;DHT22;10344;47.592;9.600;2023-03-04T13:06:30;8.80;99.90
20370;DHT22;10344;47.592;9.600;2023-03-04T13:11:49;8.50;99.90
20370;DHT22;10344;47.592;9.600;2023-03-04T13:14:24;8.70;99.90
20370;DHT22;10344;47.592;9.600;2023-03-04T13:16:57;8.70;99.90
20370;DHT22;10344;47.592;9.600;2023-03-04T13:22:33;8.90;99.90
20370;DHT22;10344;47.592;9.600;2023-03-04T13:28:29;8.80;99.90
20370;DHT22;10344;47.592;9.600;2023-03-04T13:41:22;9.40;99.90
20370;DHT22;10344;47.592;9.600;2023-03-04T13:43:58;9.40;99.90
20370;DHT22;10344;47.592;9.600;2023-03-04T13:46:42;9.30;99.90
20370;DHT22;10344;47.592;9.600;2023-03-04T13:49:20;9.20;99.90
20370;DHT22;10344;47.592;9.600;2023-03-04T13:51:46;9.00;99.90
20370;DHT22;10344;47.592;9.600;2023-03-04T13:57:19;9.00;99.90
20370;DHT22;10344;47.592;9.600;2023-03-04T13:59:48;9.30;99.90
20370;DHT22;10344;47.592;9.600;2023-03-04T14:02:22;9.20;99.90
20370;DHT22;10344;47.592;9.600;2023-03-04T14:17:49;9.40;99.90
20370;DHT22;10344;47.592;9.600;2023-03-04T14:20:31;9.50;99.90
20370;DHT22;10344;47.592;9.600;2023-03-04T14:22:59;9.50;99.90
20370;DHT22;10344;47.592;9.600;2023-03-04T14:25:33;9.50;99.90
20370;DHT22;10344;47.592;9.600;2023-03-04T14:28:10;9.80;99.90
20370;DHT22;10344;47.592;9.600;2023-03-04T14:30:36;9.90;99.90
20370;DHT22;10344;47.592;9.600;2023-03-04T14:33:13;10.00;99.90
20370;DHT22;10344;47.592;9.600;2023-03-04T14:35:49;10.10;99.90
20370;DHT22;10344;47.592;9.600;2023-03-04T14:38:21;9.80;99.90
20370;DHT22;10344;47.592;9.600;2023-03-04T14:40:57;9.60;99.90
20370;DHT22;10344;47.592;9.600;2023-03-04T14:43:24;9.60;99.90
20370;DHT22;10344;47.592;9.600;2023-03-04T14:45:53;9.50;99.90
20370;DHT22;10344;47.592;9.600;2023-03-04T14:48:36;9.40;99.90
20370;DHT22;10344;47.592;9.600;2023-03-04T14:51:02;9.30;99.90
20370;DHT22;10344;47.592;9.600;2023-03-04T14:53:32;9.30;99.90
20370;DHT22;10344;47.592;9.600;2023-03-04T14:56:06;9.30;99.90
20370;DHT22;10344;47.592;9.600;2023-03-04T14:58:51;9.20;99.90
20370;DHT22;10344;47.592;9.600;2023-03-04T15:01:22;9.20;99.90
20370;DHT22;10344;47.592;9.600;2023-03-04T15:04:02;9.10;99.90
20370;DHT22;10344;47.592;9.600;2023-03-04T15:06:33;9.10;99.90
20370;DHT22;10344;47.592;9.600;2023-03-04T15:09:06;9.10;99.90
20370;DHT22;10344;47.592;9.600;2023-03-04T15:11:50;9.20;99.90
20370;DHT22;10344;47.592;9.600;2023-03-04T15:17:30;9.50;99.90
20370;DHT22;10344;47.592;9.600;2023-03-04T15:23:01;9.60;99.90
20370;DHT22;10344;47.592;9.600;2023-03-04T15:25:29;9.40;99.90
20370;DHT22;10344;47.592;9.600;2023-03-04T15:27:56;9.30;99.90
20370;DHT22;10344;47.592;9.600;2023-03-04T15:30:29;9.30;99.90
20370;DHT22;10344;47.592;9.600;2023-03-04T15:33:00;9.30;99.90
20370;DHT22;10344;47.592;9.600;2023-03-04T15:35:28;9.20;99.90
20370;DHT22;10344;47.592;9.600;2023-03-04T15:37:59;9.30;99.90
20370;DHT22;10344;47.592;9.600;2023-03-04T15:40:32;9.10;99.90
20370;DHT22;10344;47.592;9.600;2023-03-04T15:43:07;9.00;99.90
20370;DHT22;10344;47.592;9.600;2023-03-04T15:45:43;9.00;99.90
20370;DHT22;10344;47.592;9.600;2023-03-04T15:48:13;8.90;99.90
20370;DHT22;10344;47.592;9.600;2023-03-04T15:50:47;8.90;99.90
20370;DHT22;10344;47.592;9.600;2023-03-04T15:53:32;8.80;99.90
20370;DHT22;10344;47.592;9.600;2023-03-04T15:55:58;8.80;99.90
20370;DHT22;10344;47.592;9.600;2023-03-04T15:58:25;8.90;99.90
20370;DHT22;10344;47.592;9.600;2023-03-04T16:00:51;8.80;99.90
20370;DHT22;10344;47.592;9.600;2023-03-04T16:03:20;8.70;99.90
20370;DHT22;10344;47.592;9.600;2023-03-04T16:05:47;8.70;99.90
20370;DHT22;10344;47.592;9.600;2023-03-04T16:08:17;8.70;99.90
20370;DHT22;10344;47.592;9.600;2023-03-04T16:10:46;8.50;99.90
20370;DHT22;10344;47.592;9.600;2023-03-04T16:13:22;8.40;99.90
20370;DHT22;10344;47.592;9.600;2023-03-04T16:15:51;8.30;99.90
20370;DHT22;10344;47.592;9.600;2023-03-04T16:18:16;8.20;99.90
20370;DHT22;10344;47.592;9.600;2023-03-04T16:20:44;8.20;99.90
20370;DHT22;10344;47.592;9.600;2023-03-04T16:23:15;8.10;99.90
20370;DHT22;10344;47.592;9.600;2023-03-04T16:25:45;8.00;99.90
20370;DHT22;10344;47.592;9.600;2023-03-04T16:28:13;7.90;99.90
20370;DHT22;10344;47.592;9.600;2023-03-04T16:30:43;7.80;99.90
20370;DHT22;10344;47.592;9.600;2023-03-04T16:33:14;7.70;99.90
20370;DHT22;10344;47.592;9.600;2023-03-04T16:35:44;7.60;99.90
20370;DHT22;10344;47.592;9.600;2023-03-04T16:38:23;7.50;99.90
20370;DHT22;10344;47.592;9.600;2023-03-04T16:40:53;7.40;99.90
20370;DHT22;10344;47.592;9.600;2023-03-04T16:43:20;7.40;99.90
20370;DHT22;10344;47.592;9.600;2023-03-04T16:45:52;7.30;99.90
20370;DHT22;10344;47.592;9.600;2023-03-04T16:48:21;7.20;99.90
20370;DHT22;10344;47.592;9.600;2023-03-04T16:50:52;7.10;99.90
20370;DHT22;10344;47.592;9.600;2023-03-04T16:53:36;7.10;99.90
20370;DHT22;10344;47.592;9.600;2023-03-04T16:56:12;7.00;99.90
20370;DHT22;10344;47.592;9.600;2023-03-04T16:58:38;6.90;99.90
20370;DHT22;10344;47.592;9.600;2023-03-04T17:01:08;6.80;99.90
20370;DHT22;10344;47.592;9.600;2023-03-04T17:03:36;6.70;99.90
20370;DHT22;10344;47.592;9.600;2023-03-04T17:06:07;6.60;99.90
20370;DHT22;10344;47.592;9.600;2023-03-04T17:08:35;6.50;99.90
20370;DHT22;10344;47.592;9.600;2023-03-04T17:11:01;6.40;99.90
20370;DHT22;10344;47.592;9.600;2023-03-04T17:13:27;6.20;99.90
20370;DHT22;10344;47.592;9.600;2023-03-04T17:15:52;6.10;99.90
20370;DHT22;10344;47.592;9.600;2023-03-04T17:18:21;6.00;99.90
20370;DHT22;10344;47.592;9.600;2023-03-04T17:20:49;5.90;99.90
20370;DHT22;10344;47.592;9.600;2023-03-04T17:23:17;5.80;99.90
20370;DHT22;10344;47.592;9.600;2023-03-04T17:25:43;5.80;99.90
20370;DHT22;10344;47.592;9.600;2023-03-04T17:28:08;5.70;99.90
20370;DHT22;10344;47.592;9.600;2023-03-04T17:30:34;5.60;99.90
20370;DHT22;10344;47.592;9.600;2023-03-04T17:33:02;5.60;99.90
20370;DHT22;10344;47.592;9.600;2023-03-04T17:35:36;5.50;99.90
20370;DHT22;10344;47.592;9.600;2023-03-04T17:38:02;5.40;99.90
20370;DHT22;10344;47.592;9.600;2023-03-04T17:40:27;5.30;99.90
20370;DHT22;10344;47.592;9.600;2023-03-04T17:43:00;5.30;99.90
20370;DHT22;10344;47.592;9.600;2023-03-04T17:45:27;5.30;99.90
20370;DHT22;10344;47.592;9.600;2023-03-04T17:47:53;5.20;99.90
20370;DHT22;10344;47.592;9.600;2023-03-04T17:50:25;5.30;99.90
20370;DHT22;10344;47.592;9.600;2023-03-04T17:52:52;5.40;99.90
20370;DHT22;10344;47.592;9.600;2023-03-04T17:55:18;5.60;99.90
20370;DHT22;10344;47.592;9.600;2023-03-04T17:57:44;5.70;99.90
20370;DHT22;10344;47.592;9.600;2023-03-04T18:00:14;5.80;99.90
20370;DHT22;10344;47.592;9.600;2023-03-04T18:02:39;5.80;99.90
20370;DHT22;10344;47.592;9.600;2023-03-04T18:05:05;5.90;99.90
20370;DHT22;10344;47.592;9.600;2023-03-04T18:07:39;6.00;99.90
20370;DHT22;10344;47.592;9.600;2023-03-04T18:10:07;6.20;99.90
20370;DHT22;10344;47.592;9.600;2023-03-04T18:12:33;6.40;99.90
20370;DHT22;10344;47.592;9.600;2023-03-04T18:15:05;6.40;99.90
20370;DHT22;10344;47.592;9.600;2023-03-04T18:17:32;6.40;99.90
20370;DHT22;10344;47.592;9.600;2023-03-04T18:20:05;6.40;99.90
20370;DHT22;10344;47.592;9.600;2023-03-04T18:22:31;6.40;99.90
20370;DHT22;10344;47.592;9.600;2023-03-04T18:25:02;6.40;99.90
20370;DHT22;10344;47.592;9.600;2023-03-04T18:27:28;6.40;99.90
20370;DHT22;10344;47.592;9.600;2023-03-04T18:29:53;6.30;99.90
20370;DHT22;10344;47.592;9.600;2023-03-04T18:32:20;6.20;99.90
20370;DHT22;10344;47.592;9.600;2023-03-04T18:34:52;6.20;99.90
20370;DHT22;10344;47.592;9.600;2023-03-04T18:37:20;6.00;99.90
20370;DHT22;10344;47.592;9.600;2023-03-04T18:54:42;5.50;99.90
20370;DHT22;10344;47.592;9.600;2023-03-04T19:00:23;5.20;99.90
20370;DHT22;10344;47.592;9.600;2023-03-04T19:02:56;5.20;99.90
20370;DHT22;10344;47.592;9.600;2023-03-04T19:05:41;5.10;99.90
20370;DHT22;10344;47.592;9.600;2023-03-04T19:08:14;5.00;99.90
20370;DHT22;10344;47.592;9.600;2023-03-04T19:10:58;4.90;99.90
20370;DHT22;10344;47.592;9.600;2023-03-04T19:13:57;4.80;99.90
20370;DHT22;10344;47.592;9.600;2023-03-04T19:16:45;4.70;99.90
20370;DHT22;10344;47.592;9.600;2023-03-04T19:26:12;4.20;99.90
20370;DHT22;10344;47.592;9.600;2023-03-04T19:29:18;4.20;99.90
20370;DHT22;10344;47.592;9.600;2023-03-04T19:32:32;3.90;99.90
20370;DHT22;10344;47.592;9.600;2023-03-04T19:35:49;3.80;99.90
20370;DHT22;10344;47.592;9.600;2023-03-04T19:38:41;3.60;99.90
20370;DHT22;10344;47.592;9.600;2023-03-04T19:41:12;3.60;99.90
20370;DHT22;10344;47.592;9.600;2023-03-04T19:47:04;3.20;99.90
20370;DHT22;10344;47.592;9.600;2023-03-04T19:49:31;3.10;99.90
20370;DHT22;10344;47.592;9.600;2023-03-04T19:51:56;3.00;99.90
20370;DHT22;10344;47.592;9.600;2023-03-04T19:54:28;3.00;99.90
20370;DHT22;10344;47.592;9.600;2023-03-04T19:56:56;2.90;99.90
20370;DHT22;10344;47.592;9.600;2023-03-04T19:59:28;2.80;99.90
20370;DHT22;10344;47.592;9.600;2023-03-04T20:01:54;2.70;99.90
20370;DHT22;10344;47.592;9.600;2023-03-04T20:04:20;2.60;99.90
20370;DHT22;10344;47.592;9.600;2023-03-04T20:06:54;2.50;99.90
20370;DHT22;10344;47.592;9.600;2023-03-04T20:09:19;2.50;99.90
20370;DHT22;10344;47.592;9.600;2023-03-04T20:11:46;2.50;99.90
20370;DHT22;10344;47.592;9.600;2023-03-04T20:14:17;2.40;99.90
20370;DHT22;10344;47.592;9.600;2023-03-04T20:16:43;2.40;99.90
20370;DHT22;10344;47.592;9.600;2023-03-04T20:19:09;2.30;99.90
20370;DHT22;10344;47.592;9.600;2023-03-04T20:21:38;2.30;99.90
20370;DHT22;10344;47.592;9.600;2023-03-04T20:24:04;2.40;99.90
20370;DHT22;10344;47.592;9.600;2023-03-04T20:26:31;2.30;99.90
20370;DHT22;10344;47.592;9.600;2023-03-04T20:29:05;2.30;99.90
20370;DHT22;10344;47.592;9.600;2023-03-04T20:31:35;2.30;99.90
20370;DHT22;10344;47.592;9.600;2023-03-04T20:34:06;2.30;99.90
20370;DHT22;10344;47.592;9.600;2023-03-04T20:36:40;2.30;99.90
20370;DHT22;10344;47.592;9.600;2023-03-04T20:39:34;2.40;99.90
20370;DHT22;10344;47.592;9.600;2023-03-04T20:42:03;2.40;99.90